Time;durP1;ratioP1;P1;durP2;ratioP2;P2;SDS_P1;SDS_P2;PMS_P1;PMS_P2;Temp;Humidity;BMP_temperature;BMP_pressure;BME280_temperature;BME280_humidity;BME280_pressure;Samples;Min_cycle;Max_cycle;Signal;HPM_P1;HPM_P2
2021/07/13 00:00:11;;;;;;;8.15;5.68;;;;;;;;;;1484947;40;20052;-58
2021/07/13 00:01:12;;;;;;;10.13;5.25;;;;;;;;;;1484383;40;20025;-57
2021/07/13 00:02:15;;;;;;;8.80;5.45;;;;;;;;;;1484474;40;20323;-57
2021/07/13 00:03:16;;;;;;;8.85;4.97;;;;;;;;;;1484990;40;20076;-57
2021/07/13 00:04:17;;;;;;;12.00;5.95;;;;;;;;;;1484961;40;20029;-58
2021/07/13 00:05:21;;;;;;;9.02;5.72;;;;;;;;;;1485080;40;20021;-57
2021/07/13 00:06:22;;;;;;;11.95;5.78;;;;;;;;;;1484974;40;20021;-57
2021/07/13 00:07:24;;;;;;;9.85;5.25;;;;;;;;;;1485010;40;20044;-57
2021/07/13 00:08:25;;;;;;;9.20;5.65;;;;;;;;;;1484871;40;20032;-58
2021/07/13 00:09:27;;;;;;;8.05;5.15;;;;;;;;;;1484971;40;20051;-58
2021/07/13 00:10:30;;;;;;;8.40;5.72;;;;;;;;;;1484929;40;20040;-57
2021/07/13 00:11:32;;;;;;;8.35;5.03;;;;;;;;;;1485126;40;20032;-58
2021/07/13 00:12:33;;;;;;;11.45;4.97;;;;;;;;;;1485071;40;20036;-58
2021/07/13 00:13:34;;;;;;;10.15;5.95;;;;;;;;;;1484960;40;20021;-57
2021/07/13 00:14:36;;;;;;;9.45;5.20;;;;;;;;;;1484838;40;20025;-57
2021/07/13 00:15:40;;;;;;;9.30;5.28;;;;;;;;;;1485026;40;20025;-57
2021/07/13 00:16:41;;;;;;;11.60;5.40;;;;;;;;;;1484981;40;20029;-57
2021/07/13 00:17:44;;;;;;;10.18;6.00;;;;;;;;;;1485047;40;20021;-58
2021/07/13 00:18:45;;;;;;;8.90;5.75;;;;;;;;;;1484962;40;20033;-58
2021/07/13 00:19:47;;;;;;;8.60;5.40;;;;;;;;;;1484951;40;20036;-59
2021/07/13 00:20:48;;;;;;;6.78;5.03;;;;;;;;;;1485072;40;20388;-58
2021/07/13 00:21:49;;;;;;;9.88;5.30;;;;;;;;;;1485034;40;20033;-58
2021/07/13 00:22:50;;;;;;;9.02;5.38;;;;;;;;;;1484870;40;20028;-57
2021/07/13 00:23:52;;;;;;;11.55;5.55;;;;;;;;;;1484945;40;20048;-57
2021/07/13 00:24:53;;;;;;;8.60;5.18;;;;;;;;;;1484978;40;20025;-57
2021/07/13 00:25:55;;;;;;;9.35;5.38;;;;;;;;;;1484965;40;20384;-58
2021/07/13 00:26:56;;;;;;;12.02;5.50;;;;;;;;;;1484806;40;20021;-57
2021/07/13 00:27:58;;;;;;;9.10;5.35;;;;;;;;;;1484869;40;20013;-58
2021/07/13 00:28:59;;;;;;;10.82;5.80;;;;;;;;;;1484901;40;20049;-57
2021/07/13 00:30:00;;;;;;;8.38;5.60;;;;;;;;;;1484899;40;20412;-57
2021/07/13 00:31:01;;;;;;;8.43;5.20;;;;;;;;;;1484795;40;20403;-59
2021/07/13 00:32:04;;;;;;;6.90;4.82;;;;;;;;;;1485023;40;20029;-57
2021/07/13 00:33:06;;;;;;;9.27;5.90;;;;;;;;;;1485184;40;20033;-57
2021/07/13 00:34:08;;;;;;;8.05;5.30;;;;;;;;;;1485075;40;20033;-57
2021/07/13 00:35:09;;;;;;;9.30;5.22;;;;;;;;;;1484792;40;20032;-58
2021/07/13 00:36:11;;;;;;;10.05;5.35;;;;;;;;;;1485174;40;20106;-58
2021/07/13 00:37:12;;;;;;;8.98;5.20;;;;;;;;;;1484837;40;20286;-57
2021/07/13 00:38:14;;;;;;;7.68;5.57;;;;;;;;;;1485001;40;20025;-58
2021/07/13 00:39:15;;;;;;;10.10;5.00;;;;;;;;;;1484847;40;20025;-58
2021/07/13 00:40:18;;;;;;;8.43;5.30;;;;;;;;;;1485007;40;20024;-59
2021/07/13 00:41:19;;;;;;;9.45;5.05;;;;;;;;;;1484867;40;20312;-57
2021/07/13 00:42:21;;;;;;;9.18;5.15;;;;;;;;;;1485005;40;20035;-57
2021/07/13 00:43:22;;;;;;;10.15;5.43;;;;;;;;;;1484918;40;20025;-58
2021/07/13 00:44:24;;;;;;;12.52;5.93;;;;;;;;;;1484919;40;20288;-57
2021/07/13 00:45:26;;;;;;;6.88;5.50;;;;;;;;;;1484859;40;20269;-57
2021/07/13 00:46:28;;;;;;;10.77;5.20;;;;;;;;;;1484735;40;20040;-57
2021/07/13 00:47:29;;;;;;;8.95;5.45;;;;;;;;;;1484860;40;20396;-59
2021/07/13 00:48:32;;;;;;;9.15;5.05;;;;;;;;;;1484775;40;20430;-58
2021/07/13 00:49:34;;;;;;;10.43;5.47;;;;;;;;;;1485021;40;20021;-57
2021/07/13 00:50:37;;;;;;;9.45;4.85;;;;;;;;;;1484891;40;20114;-57
2021/07/13 00:51:37;;;;;;;8.27;5.35;;;;;;;;;;1484957;40;20032;-58
2021/07/13 00:52:39;;;;;;;9.25;5.15;;;;;;;;;;1484959;40;20040;-58
2021/07/13 00:53:42;;;;;;;8.65;5.05;;;;;;;;;;1484871;40;20025;-58
2021/07/13 00:54:44;;;;;;;8.52;5.35;;;;;;;;;;1484880;40;20025;-57
2021/07/13 00:55:45;;;;;;;10.95;5.35;;;;;;;;;;1484891;40;20025;-57
2021/07/13 00:56:52;;;;;;;7.35;4.70;;;;;;;;;;1484935;40;20417;-58
2021/07/13 00:57:52;;;;;;;8.05;5.18;;;;;;;;;;1484939;40;20036;-57
2021/07/13 00:58:54;;;;;;;7.20;4.72;;;;;;;;;;1484777;40;20440;-57
2021/07/13 00:59:55;;;;;;;8.18;5.57;;;;;;;;;;1484843;40;20021;-57
2021/07/13 01:00:57;;;;;;;8.27;5.28;;;;;;;;;;1484790;40;20032;-58
2021/07/13 01:01:58;;;;;;;7.55;5.00;;;;;;;;;;1485031;40;20021;-58
2021/07/13 01:03:02;;;;;;;12.07;5.22;;;;;;;;;;1484860;40;20304;-57
2021/07/13 01:04:07;;;;;;;11.60;5.15;;;;;;;;;;1484814;40;20029;-57
2021/07/13 01:05:13;;;;;;;8.85;5.32;;;;;;;;;;1484838;40;20040;-57
2021/07/13 01:06:17;;;;;;;9.82;4.80;;;;;;;;;;1484833;40;20021;-57
2021/07/13 01:07:30;;;;;;;9.48;4.63;;;;;;;;;;1484717;40;20044;-57
2021/07/13 01:08:41;;;;;;;7.93;5.07;;;;;;;;;;1484844;40;20071;-58
2021/07/13 01:09:53;;;;;;;9.68;5.15;;;;;;;;;;1484870;40;20411;-58
2021/07/13 01:11:01;;;;;;;7.90;5.00;;;;;;;;;;1484856;40;20032;-58
2021/07/13 01:12:09;;;;;;;9.50;4.95;;;;;;;;;;1484864;40;20025;-58
2021/07/13 01:13:21;;;;;;;6.05;4.93;;;;;;;;;;1484800;40;20029;-57
2021/07/13 01:14:28;;;;;;;7.95;5.18;;;;;;;;;;1484839;40;20029;-57
2021/07/13 01:15:31;;;;;;;8.93;5.45;;;;;;;;;;1484822;40;20044;-59
2021/07/13 01:16:43;;;;;;;8.55;5.50;;;;;;;;;;1484830;40;20036;-57
2021/07/13 01:17:52;;;;;;;9.60;5.20;;;;;;;;;;1484879;40;20036;-58
2021/07/13 01:18:59;;;;;;;9.32;5.03;;;;;;;;;;1484748;40;20114;-57
2021/07/13 01:20:28;;;;;;;6.47;4.63;;;;;;;;;;1484859;40;20021;-58
2021/07/13 01:21:40;;;;;;;10.10;5.25;;;;;;;;;;1484902;40;20036;-57
2021/07/13 01:22:45;;;;;;;8.38;5.20;;;;;;;;;;1484752;40;20028;-57
2021/07/13 01:23:58;;;;;;;8.93;5.40;;;;;;;;;;1484962;40;20061;-58
2021/07/13 01:25:11;;;;;;;6.00;4.63;;;;;;;;;;1484907;40;20029;-58
2021/07/13 01:26:21;;;;;;;9.63;5.07;;;;;;;;;;1484851;40;20036;-57
2021/07/13 01:27:57;;;;;;;11.13;4.90;;;;;;;;;;1484673;40;20393;-58
2021/07/13 01:29:03;;;;;;;9.05;5.00;;;;;;;;;;1484145;40;20028;-57
2021/07/13 01:30:07;;;;;;;7.75;4.85;;;;;;;;;;1484322;40;20411;-57
2021/07/13 01:31:12;;;;;;;9.50;5.28;;;;;;;;;;1484808;40;20040;-57
2021/07/13 01:32:17;;;;;;;9.70;5.18;;;;;;;;;;1484830;40;20388;-57
2021/07/13 01:33:23;;;;;;;9.20;5.45;;;;;;;;;;1484731;40;20024;-57
2021/07/13 01:34:28;;;;;;;8.38;5.30;;;;;;;;;;1484679;40;20024;-58
2021/07/13 01:35:38;;;;;;;8.73;5.30;;;;;;;;;;1484715;40;20024;-58
2021/07/13 01:36:44;;;;;;;9.00;5.53;;;;;;;;;;1484691;40;20025;-58
2021/07/13 01:37:49;;;;;;;7.13;5.13;;;;;;;;;;1484912;40;20032;-57
2021/07/13 01:38:52;;;;;;;10.10;5.85;;;;;;;;;;1485086;40;20021;-57
2021/07/13 01:39:55;;;;;;;13.20;5.60;;;;;;;;;;1484897;40;20035;-57
2021/07/13 01:41:00;;;;;;;10.48;5.50;;;;;;;;;;1484591;40;20035;-58
2021/07/13 01:42:08;;;;;;;7.82;4.85;;;;;;;;;;1484802;40;20032;-57
2021/07/13 01:43:11;;;;;;;8.30;5.25;;;;;;;;;;1484644;40;20036;-57
2021/07/13 01:44:19;;;;;;;9.00;5.15;;;;;;;;;;1484765;40;20416;-57
2021/07/13 01:45:20;;;;;;;7.53;5.07;;;;;;;;;;1484653;40;20025;-57
2021/07/13 01:46:22;;;;;;;8.02;5.07;;;;;;;;;;1484803;40;20029;-57
2021/07/13 01:47:24;;;;;;;9.40;5.40;;;;;;;;;;1484719;40;20045;-57
2021/07/13 01:48:28;;;;;;;8.95;5.20;;;;;;;;;;1484736;40;20392;-57
2021/07/13 01:49:30;;;;;;;10.45;4.93;;;;;;;;;;1484827;40;20029;-58
2021/07/13 01:50:33;;;;;;;9.88;5.45;;;;;;;;;;1484804;40;20031;-58
2021/07/13 01:51:34;;;;;;;8.82;5.40;;;;;;;;;;1484758;40;20072;-57
2021/07/13 01:52:38;;;;;;;7.72;4.93;;;;;;;;;;1484740;40;20385;-57
2021/07/13 01:53:39;;;;;;;11.00;5.20;;;;;;;;;;1484645;40;20028;-58
2021/07/13 01:54:43;;;;;;;8.45;5.25;;;;;;;;;;1484867;40;20107;-57
2021/07/13 01:55:45;;;;;;;6.65;4.97;;;;;;;;;;1484652;40;20393;-57
2021/07/13 01:56:53;;;;;;;6.72;5.10;;;;;;;;;;1484714;40;20131;-57
2021/07/13 01:57:55;;;;;;;7.43;4.63;;;;;;;;;;1484667;40;20025;-58
2021/07/13 01:58:59;;;;;;;8.45;5.57;;;;;;;;;;1484623;40;20040;-58
2021/07/13 02:00:07;;;;;;;10.70;5.40;;;;;;;;;;1484633;40;20040;-58
2021/07/13 02:01:12;;;;;;;12.05;5.28;;;;;;;;;;1484763;40;20086;-57
2021/07/13 02:02:14;;;;;;;8.38;5.18;;;;;;;;;;1484636;40;20025;-57
2021/07/13 02:03:16;;;;;;;11.55;5.22;;;;;;;;;;1484871;40;20020;-58
2021/07/13 02:04:18;;;;;;;7.70;5.10;;;;;;;;;;1484293;40;20296;-58
2021/07/13 02:05:21;;;;;;;7.78;5.38;;;;;;;;;;1484876;40;20032;-58
2021/07/13 02:06:24;;;;;;;8.45;5.50;;;;;;;;;;1484661;40;20025;-57
2021/07/13 02:07:27;;;;;;;10.15;5.30;;;;;;;;;;1484645;40;20478;-57
2021/07/13 02:08:28;;;;;;;8.05;5.03;;;;;;;;;;1484748;40;20025;-58
2021/07/13 02:09:31;;;;;;;11.48;5.47;;;;;;;;;;1484733;40;20036;-57
2021/07/13 02:10:33;;;;;;;10.77;5.55;;;;;;;;;;1484610;40;20029;-58
2021/07/13 02:11:35;;;;;;;8.88;5.40;;;;;;;;;;1484751;40;20037;-57
2021/07/13 02:12:38;;;;;;;9.65;6.22;;;;;;;;;;1484720;40;20029;-57
2021/07/13 02:13:40;;;;;;;7.85;5.47;;;;;;;;;;1484640;40;20409;-57
2021/07/13 02:14:42;;;;;;;7.82;5.20;;;;;;;;;;1484746;40;20021;-58
2021/07/13 02:15:44;;;;;;;9.00;5.60;;;;;;;;;;1484658;40;20076;-58
2021/07/13 02:16:45;;;;;;;10.30;6.35;;;;;;;;;;1484590;40;20389;-58
2021/07/13 02:17:49;;;;;;;7.80;5.32;;;;;;;;;;1484626;40;20029;-57
2021/07/13 02:18:51;;;;;;;8.50;5.32;;;;;;;;;;1484599;40;20047;-57
2021/07/13 02:19:52;;;;;;;9.55;5.65;;;;;;;;;;1484842;40;20036;-57
2021/07/13 02:20:54;;;;;;;10.00;5.70;;;;;;;;;;1484747;40;20411;-58
2021/07/13 02:21:56;;;;;;;8.90;5.80;;;;;;;;;;1484642;40;20045;-57
2021/07/13 02:22:57;;;;;;;8.18;5.80;;;;;;;;;;1484584;40;20021;-58
2021/07/13 02:23:59;;;;;;;9.43;5.40;;;;;;;;;;1484795;40;20057;-59
2021/07/13 02:25:00;;;;;;;7.57;5.53;;;;;;;;;;1484656;40;20025;-57
2021/07/13 02:26:05;;;;;;;7.43;5.68;;;;;;;;;;1484782;40;20028;-59
2021/07/13 02:27:14;;;;;;;9.90;6.10;;;;;;;;;;1484743;40;20029;-57
2021/07/13 02:28:20;;;;;;;8.93;5.55;;;;;;;;;;1484642;40;20445;-57
2021/07/13 02:29:25;;;;;;;7.65;5.85;;;;;;;;;;1484564;40;20024;-58
2021/07/13 02:30:31;;;;;;;9.00;6.13;;;;;;;;;;1484664;40;20028;-58
2021/07/13 02:31:35;;;;;;;8.98;5.88;;;;;;;;;;1484549;40;20020;-58
2021/07/13 02:32:42;;;;;;;9.45;5.40;;;;;;;;;;1484832;40;20069;-57
2021/07/13 02:33:48;;;;;;;8.73;5.80;;;;;;;;;;1484680;40;20039;-58
2021/07/13 02:34:51;;;;;;;9.05;5.75;;;;;;;;;;1484763;40;20122;-57
2021/07/13 02:35:55;;;;;;;9.63;5.57;;;;;;;;;;1484593;40;20025;-57
2021/07/13 02:37:00;;;;;;;10.00;5.85;;;;;;;;;;1484726;40;20024;-57
2021/07/13 02:38:03;;;;;;;7.88;5.50;;;;;;;;;;1484614;40;20280;-58
2021/07/13 02:39:08;;;;;;;11.70;5.43;;;;;;;;;;1484579;40;20102;-57
2021/07/13 02:40:10;;;;;;;6.90;5.20;;;;;;;;;;1484482;40;20029;-58
2021/07/13 02:41:14;;;;;;;9.57;5.53;;;;;;;;;;1484569;40;20316;-58
2021/07/13 02:42:17;;;;;;;10.65;5.88;;;;;;;;;;1484507;40;20025;-57
2021/07/13 02:43:20;;;;;;;12.35;5.70;;;;;;;;;;1484818;40;20037;-57
2021/07/13 02:44:23;;;;;;;14.23;5.35;;;;;;;;;;1484506;40;20036;-57
2021/07/13 02:45:26;;;;;;;10.48;5.63;;;;;;;;;;1484616;40;20028;-57
2021/07/13 02:46:30;;;;;;;8.63;5.57;;;;;;;;;;1484703;40;20403;-57
2021/07/13 02:47:32;;;;;;;10.43;5.40;;;;;;;;;;1484587;40;20029;-58
2021/07/13 02:48:35;;;;;;;9.68;5.35;;;;;;;;;;1484579;40;20024;-57
2021/07/13 02:49:44;;;;;;;9.90;5.18;;;;;;;;;;1484756;40;20029;-58
2021/07/13 02:50:46;;;;;;;8.38;5.90;;;;;;;;;;1484500;40;20029;-57
2021/07/13 02:51:51;;;;;;;10.07;5.47;;;;;;;;;;1484525;40;20380;-57
2021/07/13 02:52:53;;;;;;;7.75;5.22;;;;;;;;;;1484492;40;20135;-57
2021/07/13 02:53:56;;;;;;;8.98;5.15;;;;;;;;;;1484714;40;20021;-57
2021/07/13 02:55:01;;;;;;;7.97;5.47;;;;;;;;;;1484723;40;20021;-57
2021/07/13 02:56:06;;;;;;;8.40;5.13;;;;;;;;;;1484704;40;20300;-57
2021/07/13 02:57:08;;;;;;;9.68;6.05;;;;;;;;;;1484512;40;20051;-57
2021/07/13 02:58:10;;;;;;;9.18;5.13;;;;;;;;;;1484573;40;20035;-57
2021/07/13 02:59:12;;;;;;;10.20;4.85;;;;;;;;;;1484529;40;20021;-57
2021/07/13 03:00:16;;;;;;;8.40;5.07;;;;;;;;;;1484656;40;20028;-58
2021/07/13 03:01:17;;;;;;;8.35;5.57;;;;;;;;;;1484454;40;20029;-58
2021/07/13 03:02:22;;;;;;;7.35;5.43;;;;;;;;;;1484593;40;20270;-57
2021/07/13 03:03:24;;;;;;;8.25;5.60;;;;;;;;;;1484491;40;20142;-58
2021/07/13 03:04:25;;;;;;;9.18;5.50;;;;;;;;;;1484452;40;20032;-57
2021/07/13 03:05:29;;;;;;;8.60;5.70;;;;;;;;;;1484514;40;20056;-57
2021/07/13 03:06:30;;;;;;;9.68;5.97;;;;;;;;;;1484489;40;20372;-57
2021/07/13 03:07:33;;;;;;;8.13;5.50;;;;;;;;;;1484536;40;20025;-57
2021/07/13 03:08:34;;;;;;;10.13;5.60;;;;;;;;;;1484510;40;20029;-57
2021/07/13 03:09:38;;;;;;;11.70;5.78;;;;;;;;;;1484657;40;20025;-57
2021/07/13 03:10:39;;;;;;;9.07;5.55;;;;;;;;;;1484477;40;20025;-57
2021/07/13 03:11:41;;;;;;;10.43;5.50;;;;;;;;;;1484563;40;20025;-57
2021/07/13 03:12:43;;;;;;;10.77;5.80;;;;;;;;;;1484547;40;20032;-57
2021/07/13 03:13:45;;;;;;;13.73;5.78;;;;;;;;;;1484536;40;20376;-57
2021/07/13 03:14:47;;;;;;;7.68;5.30;;;;;;;;;;1484523;40;20029;-58
2021/07/13 03:15:50;;;;;;;10.23;6.00;;;;;;;;;;1484089;40;20028;-57
2021/07/13 03:16:51;;;;;;;9.15;5.55;;;;;;;;;;1484277;40;20021;-57
2021/07/13 03:17:55;;;;;;;8.27;5.40;;;;;;;;;;1484535;40;20075;-57
2021/07/13 03:18:55;;;;;;;9.77;5.88;;;;;;;;;;1484522;40;20025;-58
2021/07/13 03:19:57;;;;;;;11.68;6.30;;;;;;;;;;1484683;40;20412;-57
2021/07/13 03:21:02;;;;;;;11.48;5.88;;;;;;;;;;1484578;40;20049;-57
2021/07/13 03:22:06;;;;;;;9.93;5.70;;;;;;;;;;1484593;40;20021;-57
2021/07/13 03:23:07;;;;;;;7.07;5.22;;;;;;;;;;1484419;40;20408;-58
2021/07/13 03:24:09;;;;;;;9.32;5.57;;;;;;;;;;1484464;40;20032;-58
2021/07/13 03:25:13;;;;;;;12.40;6.43;;;;;;;;;;1484537;40;20029;-57
2021/07/13 03:26:15;;;;;;;8.70;5.63;;;;;;;;;;1484422;40;20378;-57
2021/07/13 03:27:18;;;;;;;12.32;5.97;;;;;;;;;;1484457;40;20028;-58
2021/07/13 03:28:22;;;;;;;8.23;5.43;;;;;;;;;;1484509;40;20039;-59
2021/07/13 03:29:23;;;;;;;9.45;5.70;;;;;;;;;;1484450;40;20393;-57
2021/07/13 03:30:25;;;;;;;9.77;5.88;;;;;;;;;;1484430;40;20069;-57
2021/07/13 03:31:27;;;;;;;10.35;5.78;;;;;;;;;;1484417;40;20404;-57
2021/07/13 03:32:29;;;;;;;10.15;5.60;;;;;;;;;;1484487;40;20262;-57
2021/07/13 03:33:32;;;;;;;11.73;6.20;;;;;;;;;;1484434;40;20032;-57
2021/07/13 03:34:34;;;;;;;9.52;5.93;;;;;;;;;;1484477;40;20031;-57
2021/07/13 03:35:36;;;;;;;11.52;6.25;;;;;;;;;;1484412;40;20025;-58
2021/07/13 03:36:38;;;;;;;12.52;6.05;;;;;;;;;;1484642;40;20057;-57
2021/07/13 03:37:39;;;;;;;11.15;5.75;;;;;;;;;;1484400;40;20032;-58
2021/07/13 03:38:41;;;;;;;12.57;5.57;;;;;;;;;;1484648;40;20025;-58
2021/07/13 03:39:43;;;;;;;13.75;6.18;;;;;;;;;;1484548;40;20021;-57
2021/07/13 03:40:48;;;;;;;9.00;5.60;;;;;;;;;;1484401;40;20036;-57
2021/07/13 03:41:49;;;;;;;13.35;6.22;;;;;;;;;;1484394;40;20024;-57
2021/07/13 03:42:53;;;;;;;8.35;5.80;;;;;;;;;;1484449;40;20028;-57
2021/07/13 03:43:55;;;;;;;9.27;5.93;;;;;;;;;;1484414;40;20021;-58
2021/07/13 03:44:57;;;;;;;9.65;5.75;;;;;;;;;;1484596;40;20028;-57
2021/07/13 03:45:58;;;;;;;11.32;5.95;;;;;;;;;;1484522;40;20028;-57
2021/07/13 03:47:02;;;;;;;9.20;6.30;;;;;;;;;;1484390;40;20024;-57
2021/07/13 03:48:04;;;;;;;7.25;5.70;;;;;;;;;;1484296;40;20300;-57
2021/07/13 03:49:09;;;;;;;11.63;5.90;;;;;;;;;;1484550;40;20029;-57
2021/07/13 03:50:11;;;;;;;15.50;6.50;;;;;;;;;;1484685;40;20021;-59
2021/07/13 03:51:22;;;;;;;7.57;5.60;;;;;;;;;;1484460;40;20043;-58
2021/07/13 03:52:23;;;;;;;9.48;5.60;;;;;;;;;;1484420;40;20021;-57
2021/07/13 03:53:24;;;;;;;8.75;5.70;;;;;;;;;;1484563;40;20025;-57
2021/07/13 03:54:25;;;;;;;10.82;6.13;;;;;;;;;;1484398;40;20021;-58
2021/07/13 03:55:27;;;;;;;8.68;5.85;;;;;;;;;;1484372;40;20036;-57
2021/07/13 03:56:29;;;;;;;10.45;5.30;;;;;;;;;;1484366;40;20036;-57
2021/07/13 03:57:31;;;;;;;12.63;6.20;;;;;;;;;;1484413;40;20393;-58
2021/07/13 03:58:32;;;;;;;11.10;5.80;;;;;;;;;;1484423;40;20032;-57
2021/07/13 03:59:34;;;;;;;8.95;5.72;;;;;;;;;;1484393;40;20021;-57
2021/07/13 04:00:35;;;;;;;8.95;5.25;;;;;;;;;;1484280;40;20393;-58
2021/07/13 04:01:37;;;;;;;8.45;5.90;;;;;;;;;;1484360;40;20017;-57
2021/07/13 04:02:38;;;;;;;8.98;6.10;;;;;;;;;;1484388;40;20029;-57
2021/07/13 04:03:40;;;;;;;8.85;5.65;;;;;;;;;;1484378;40;20025;-58
2021/07/13 04:04:42;;;;;;;8.77;5.32;;;;;;;;;;1484249;40;20028;-58
2021/07/13 04:05:44;;;;;;;8.75;6.10;;;;;;;;;;1484456;40;20036;-57
2021/07/13 04:06:45;;;;;;;9.43;5.78;;;;;;;;;;1484312;40;20029;-57
2021/07/13 04:07:47;;;;;;;6.90;5.50;;;;;;;;;;1484484;40;20301;-57
2021/07/13 04:08:47;;;;;;;9.90;6.32;;;;;;;;;;1484365;40;20025;-57
2021/07/13 04:09:49;;;;;;;7.60;5.60;;;;;;;;;;1484401;40;20024;-57
2021/07/13 04:10:50;;;;;;;9.48;6.15;;;;;;;;;;1484358;40;20051;-57
2021/07/13 04:11:52;;;;;;;8.05;5.90;;;;;;;;;;1484383;40;20036;-57
2021/07/13 04:12:53;;;;;;;9.25;6.50;;;;;;;;;;1484394;40;20028;-58
2021/07/13 04:13:54;;;;;;;7.15;6.05;;;;;;;;;;1484546;40;20031;-57
2021/07/13 04:14:55;;;;;;;8.63;5.85;;;;;;;;;;1484427;40;20025;-57
2021/07/13 04:15:57;;;;;;;11.15;6.25;;;;;;;;;;1484239;40;20021;-57
2021/07/13 04:16:58;;;;;;;9.15;6.32;;;;;;;;;;1484272;40;20396;-57
2021/07/13 04:18:00;;;;;;;9.27;6.50;;;;;;;;;;1484509;40;20024;-58
2021/07/13 04:19:02;;;;;;;9.82;6.32;;;;;;;;;;1484313;40;20036;-57
2021/07/13 04:20:07;;;;;;;9.70;6.90;;;;;;;;;;1484346;40;20021;-57
2021/07/13 04:21:08;;;;;;;7.70;5.90;;;;;;;;;;1484458;40;20048;-57
2021/07/13 04:22:10;;;;;;;8.05;6.10;;;;;;;;;;1484366;40;20377;-58
2021/07/13 04:23:11;;;;;;;9.23;5.75;;;;;;;;;;1484228;40;20025;-57
2021/07/13 04:24:13;;;;;;;15.85;6.30;;;;;;;;;;1484318;40;20032;-57
2021/07/13 04:25:14;;;;;;;9.93;5.70;;;;;;;;;;1484328;40;20025;-58
2021/07/13 04:26:16;;;;;;;11.93;5.78;;;;;;;;;;1484459;40;20305;-57
2021/07/13 04:27:17;;;;;;;10.68;6.00;;;;;;;;;;1484445;40;20032;-57
2021/07/13 04:28:18;;;;;;;12.43;5.97;;;;;;;;;;1484922;40;20024;-58
2021/07/13 04:29:19;;;;;;;12.27;5.55;;;;;;;;;;1485005;40;20032;-58
2021/07/13 04:30:21;;;;;;;13.93;6.00;;;;;;;;;;1484896;40;20032;-57
2021/07/13 04:31:22;;;;;;;10.18;5.80;;;;;;;;;;1484890;40;20029;-57
2021/07/13 04:32:24;;;;;;;8.52;5.70;;;;;;;;;;1484963;40;20029;-58
2021/07/13 04:33:25;;;;;;;10.02;6.00;;;;;;;;;;1484971;40;20025;-57
2021/07/13 04:34:27;;;;;;;9.95;5.85;;;;;;;;;;1484974;40;20033;-57
2021/07/13 04:35:29;;;;;;;9.20;5.72;;;;;;;;;;1484933;40;20036;-57
2021/07/13 04:36:30;;;;;;;8.90;5.57;;;;;;;;;;1484946;40;20072;-57
2021/07/13 04:37:32;;;;;;;7.53;5.32;;;;;;;;;;1484843;40;20021;-58
2021/07/13 04:38:34;;;;;;;10.82;5.93;;;;;;;;;;1484933;40;20037;-57
2021/07/13 04:39:35;;;;;;;9.70;6.20;;;;;;;;;;1485125;40;20021;-57
2021/07/13 04:40:37;;;;;;;9.20;5.35;;;;;;;;;;1484872;40;20396;-57
2021/07/13 04:41:38;;;;;;;9.32;5.88;;;;;;;;;;1485007;40;20021;-58
2021/07/13 04:42:41;;;;;;;7.80;5.65;;;;;;;;;;1484972;40;20025;-57
2021/07/13 04:43:41;;;;;;;8.50;6.05;;;;;;;;;;1484848;40;20029;-60
2021/07/13 04:44:43;;;;;;;10.82;6.13;;;;;;;;;;1484891;40;20025;-57
2021/07/13 04:45:44;;;;;;;9.18;5.50;;;;;;;;;;1484979;40;20021;-57
2021/07/13 04:46:46;;;;;;;11.15;6.05;;;;;;;;;;1484982;40;20028;-59
2021/07/13 04:47:47;;;;;;;9.18;6.38;;;;;;;;;;1484933;40;20025;-59
2021/07/13 04:48:49;;;;;;;7.50;5.97;;;;;;;;;;1484897;40;20293;-59
2021/07/13 04:49:49;;;;;;;8.90;6.93;;;;;;;;;;1484807;40;20024;-59
2021/07/13 04:50:52;;;;;;;10.27;7.03;;;;;;;;;;1484977;40;20063;-59
2021/07/13 04:51:53;;;;;;;8.75;6.40;;;;;;;;;;1485000;40;20033;-58
2021/07/13 04:52:55;;;;;;;8.82;6.35;;;;;;;;;;1484890;40;20036;-58
2021/07/13 04:53:56;;;;;;;12.32;6.95;;;;;;;;;;1484839;40;20035;-58
2021/07/13 04:54:58;;;;;;;10.85;8.00;;;;;;;;;;1485037;40;20036;-58
2021/07/13 04:55:58;;;;;;;8.10;6.68;;;;;;;;;;1484843;40;20032;-58
2021/07/13 04:57:01;;;;;;;9.52;7.38;;;;;;;;;;1484878;40;20025;-59
2021/07/13 04:58:02;;;;;;;9.32;7.20;;;;;;;;;;1484799;40;20025;-58
2021/07/13 04:59:03;;;;;;;9.43;6.70;;;;;;;;;;1484910;40;20032;-58
2021/07/13 05:00:05;;;;;;;8.20;6.18;;;;;;;;;;1484834;40;20284;-58
2021/07/13 05:01:07;;;;;;;8.30;6.20;;;;;;;;;;1484923;40;20065;-59
2021/07/13 05:02:08;;;;;;;10.85;6.78;;;;;;;;;;1484953;40;20029;-59
2021/07/13 05:03:10;;;;;;;9.80;6.32;;;;;;;;;;1484905;40;20385;-58
2021/07/13 05:04:11;;;;;;;12.75;6.35;;;;;;;;;;1484736;40;20025;-58
2021/07/13 05:05:14;;;;;;;9.98;6.55;;;;;;;;;;1484850;40;20024;-58
2021/07/13 05:06:16;;;;;;;10.13;6.88;;;;;;;;;;1484838;40;20025;-59
2021/07/13 05:07:18;;;;;;;8.43;6.55;;;;;;;;;;1484975;40;20024;-59
2021/07/13 05:08:21;;;;;;;13.68;6.63;;;;;;;;;;1484873;40;20029;-58
2021/07/13 05:09:24;;;;;;;8.05;6.18;;;;;;;;;;1484818;40;20041;-59
2021/07/13 05:10:25;;;;;;;9.55;6.35;;;;;;;;;;1484707;40;20041;-61
2021/07/13 05:11:27;;;;;;;9.88;6.80;;;;;;;;;;1484878;40;20038;-58
2021/07/13 05:12:28;;;;;;;9.85;6.68;;;;;;;;;;1484887;40;20292;-58
2021/07/13 05:13:30;;;;;;;8.73;6.00;;;;;;;;;;1484868;40;20025;-58
2021/07/13 05:14:30;;;;;;;8.38;6.45;;;;;;;;;;1484764;40;20296;-58
2021/07/13 05:15:33;;;;;;;12.80;6.35;;;;;;;;;;1485113;40;20049;-59
2021/07/13 05:16:33;;;;;;;10.30;7.05;;;;;;;;;;1484848;40;20032;-59
2021/07/13 05:17:36;;;;;;;9.18;6.38;;;;;;;;;;1485022;40;20021;-58
2021/07/13 05:18:37;;;;;;;9.20;6.32;;;;;;;;;;1484931;40;20037;-58
2021/07/13 05:19:39;;;;;;;10.85;6.72;;;;;;;;;;1484923;40;20309;-59
2021/07/13 05:20:43;;;;;;;10.30;6.80;;;;;;;;;;1484929;40;20133;-58
2021/07/13 05:21:54;;;;;;;10.10;6.57;;;;;;;;;;1484876;40;20295;-58
2021/07/13 05:22:59;;;;;;;9.65;7.10;;;;;;;;;;1484805;40;20028;-59
2021/07/13 05:24:01;;;;;;;9.50;6.45;;;;;;;;;;1484883;40;20292;-59
2021/07/13 05:25:03;;;;;;;9.48;6.95;;;;;;;;;;1484830;40;20032;-59
2021/07/13 05:26:05;;;;;;;13.25;7.25;;;;;;;;;;1484885;40;20092;-59
2021/07/13 05:27:06;;;;;;;9.43;7.13;;;;;;;;;;1484704;40;20025;-58
2021/07/13 05:28:10;;;;;;;9.13;6.50;;;;;;;;;;1484936;40;20037;-59
2021/07/13 05:29:11;;;;;;;11.73;6.88;;;;;;;;;;1484736;40;20032;-60
2021/07/13 05:30:14;;;;;;;8.93;6.70;;;;;;;;;;1484781;40;20021;-60
2021/07/13 05:31:15;;;;;;;12.30;6.90;;;;;;;;;;1484717;40;20025;-59
2021/07/13 05:32:17;;;;;;;8.25;6.20;;;;;;;;;;1484902;40;20025;-58
2021/07/13 05:33:17;;;;;;;12.68;6.78;;;;;;;;;;1484763;40;20380;-59
2021/07/13 05:34:19;;;;;;;10.57;6.68;;;;;;;;;;1484745;40;20040;-58
2021/07/13 05:35:21;;;;;;;11.23;6.60;;;;;;;;;;1484753;40;20409;-58
2021/07/13 05:36:22;;;;;;;9.48;7.10;;;;;;;;;;1484900;40;20025;-59
2021/07/13 05:37:24;;;;;;;13.20;6.65;;;;;;;;;;1484756;40;20025;-58
2021/07/13 05:38:26;;;;;;;12.55;6.75;;;;;;;;;;1484894;40;20021;-59
2021/07/13 05:39:28;;;;;;;13.68;7.05;;;;;;;;;;1484318;40;20028;-59
2021/07/13 05:40:29;;;;;;;12.18;6.55;;;;;;;;;;1484874;40;20037;-59
2021/07/13 05:41:30;;;;;;;10.70;6.82;;;;;;;;;;1484826;40;20032;-58
2021/07/13 05:42:32;;;;;;;12.75;6.85;;;;;;;;;;1484913;40;20292;-58
2021/07/13 05:43:33;;;;;;;10.68;6.40;;;;;;;;;;1484856;40;20021;-58
2021/07/13 05:44:35;;;;;;;8.57;6.10;;;;;;;;;;1484949;40;20025;-58
2021/07/13 05:45:36;;;;;;;9.75;6.43;;;;;;;;;;1484877;40;20025;-58
2021/07/13 05:46:38;;;;;;;11.52;6.60;;;;;;;;;;1484819;40;20289;-59
2021/07/13 05:47:39;;;;;;;8.45;6.47;;;;;;;;;;1484675;40;20296;-59
2021/07/13 05:48:40;;;;;;;10.02;6.45;;;;;;;;;;1484870;40;20033;-59
2021/07/13 05:49:42;;;;;;;13.05;6.78;;;;;;;;;;1484659;40;20025;-59
2021/07/13 05:50:44;;;;;;;10.05;6.35;;;;;;;;;;1484903;40;20047;-58
2021/07/13 05:51:45;;;;;;;8.52;6.35;;;;;;;;;;1484739;40;20021;-58
2021/07/13 05:52:48;;;;;;;9.38;6.50;;;;;;;;;;1484806;40;20036;-59
2021/07/13 05:53:49;;;;;;;9.20;6.05;;;;;;;;;;1484624;40;20017;-59
2021/07/13 05:54:51;;;;;;;11.43;6.57;;;;;;;;;;1484843;40;20036;-58
2021/07/13 05:55:52;;;;;;;9.48;6.70;;;;;;;;;;1484632;40;20036;-58
2021/07/13 05:56:54;;;;;;;10.73;6.57;;;;;;;;;;1484791;40;20025;-59
2021/07/13 05:57:55;;;;;;;9.23;6.57;;;;;;;;;;1484672;40;20025;-59
2021/07/13 05:58:56;;;;;;;7.55;6.40;;;;;;;;;;1484848;40;20110;-59
2021/07/13 05:59:57;;;;;;;9.57;6.70;;;;;;;;;;1484716;40;20032;-59
2021/07/13 06:00:59;;;;;;;8.05;6.13;;;;;;;;;;1484814;40;20029;-59
2021/07/13 06:02:00;;;;;;;7.43;6.05;;;;;;;;;;1484856;40;20385;-59
2021/07/13 06:03:01;;;;;;;8.48;6.25;;;;;;;;;;1484848;40;20031;-59
2021/07/13 06:04:03;;;;;;;8.23;6.72;;;;;;;;;;1484705;40;20025;-58
2021/07/13 06:05:06;;;;;;;6.97;6.22;;;;;;;;;;1484872;40;20036;-58
2021/07/13 06:06:07;;;;;;;7.82;6.22;;;;;;;;;;1484693;40;20021;-58
2021/07/13 06:07:08;;;;;;;9.68;6.15;;;;;;;;;;1484832;40;20396;-58
2021/07/13 06:08:10;;;;;;;9.48;6.95;;;;;;;;;;1484579;40;20372;-59
2021/07/13 06:09:12;;;;;;;8.25;6.60;;;;;;;;;;1484773;40;20292;-59
2021/07/13 06:10:14;;;;;;;10.35;7.05;;;;;;;;;;1484720;40;20266;-60
2021/07/13 06:11:17;;;;;;;9.27;6.97;;;;;;;;;;1484986;40;20064;-59
2021/07/13 06:12:19;;;;;;;9.25;6.47;;;;;;;;;;1484610;40;20024;-58
2021/07/13 06:13:21;;;;;;;7.57;6.78;;;;;;;;;;1484937;40;20025;-59
2021/07/13 06:14:22;;;;;;;8.98;6.80;;;;;;;;;;1484750;40;20021;-58